Time;durP1;ratioP1;P1;durP2;ratioP2;P2;SDS_P1;SDS_P2;PMS_P1;PMS_P2;Temp;Humidity;BMP_temperature;BMP_pressure;BME280_temperature;BME280_humidity;BME280_pressure;Samples;Min_cycle;Max_cycle;Signal;HPM_P1;HPM_P2
2023/07/21 00:01:18;;;;;;;2.38;1.20;;;;;;;17.34;46.73;99495.16;10340423;28;20050;-81
2023/07/21 00:06:21;;;;;;;3.05;1.30;;;;;;;17.33;47.14;99496.94;10321355;28;20228;-81
2023/07/21 00:11:23;;;;;;;2.15;1.30;;;;;;;17.32;47.35;99505.84;10337184;28;20572;-80
2023/07/21 00:16:27;;;;;;;1.63;1.10;;;;;;;17.25;47.40;99502.09;10352278;28;20703;-81
2023/07/21 00:21:30;;;;;;;1.40;1.20;;;;;;;17.32;47.29;99502.34;10356922;28;20418;-80
2023/07/21 00:26:35;;;;;;;2.25;0.88;;;;;;;17.21;47.46;99494.59;10354909;28;20533;-80
2023/07/21 00:31:38;;;;;;;2.03;1.05;;;;;;;17.27;47.27;99494.84;10338498;28;20140;-80
2023/07/21 00:36:41;;;;;;;1.33;0.93;;;;;;;17.32;47.26;99486.50;10339461;28;20061;-81
2023/07/21 00:41:43;;;;;;;1.30;0.93;;;;;;;17.27;47.26;99484.28;10353842;28;20041;-80
2023/07/21 00:46:46;;;;;;;1.17;0.82;;;;;;;17.34;47.22;99474.00;10356026;28;20058;-80
2023/07/21 00:51:48;;;;;;;1.10;0.85;;;;;;;17.32;47.21;99475.91;10338366;28;20129;-80
2023/07/21 00:56:52;;;;;;;2.03;1.10;;;;;;;17.32;47.55;99470.63;10355150;28;20053;-81
2023/07/21 01:01:58;;;;;;;2.78;1.20;;;;;;;17.37;47.12;99471.03;10353853;28;20057;-81
2023/07/21 01:07:03;;;;;;;1.30;1.20;;;;;;;17.38;47.41;99470.09;10337564;28;20045;-80
2023/07/21 01:12:06;;;;;;;2.88;1.20;;;;;;;17.25;47.48;99462.44;10339566;28;20049;-81
2023/07/21 01:17:10;;;;;;;1.42;1.20;;;;;;;17.37;47.55;99457.81;10338309;28;20046;-80
2023/07/21 01:22:24;;;;;;;1.60;1.10;;;;;;;17.27;47.42;99462.28;10369722;28;20045;-80
2023/07/21 01:27:27;;;;;;;2.35;1.38;;;;;;;17.37;47.28;99478.97;10337261;28;20045;-80
2023/07/21 01:32:29;;;;;;;1.45;0.82;;;;;;;17.40;46.96;99476.91;10369776;28;20069;-80
2023/07/21 01:37:32;;;;;;;1.15;0.98;;;;;;;17.31;47.15;99466.31;10353683;28;20046;-80
2023/07/21 01:42:36;;;;;;;2.08;1.60;;;;;;;17.27;48.32;99463.13;10338044;28;20410;-80
2023/07/21 01:47:38;;;;;;;1.60;1.10;;;;;;;17.36;49.98;99472.88;10337846;28;20053;-80
2023/07/21 01:52:42;;;;;;;3.60;1.30;;;;;;;17.26;51.08;99466.75;10354508;28;20077;-80
2023/07/21 01:57:50;;;;;;;1.92;1.17;;;;;;;17.15;52.24;99477.50;10369590;28;20054;-80
2023/07/21 02:02:54;;;;;;;1.67;1.10;;;;;;;17.07;52.47;99474.75;10354802;28;20053;-80
2023/07/21 02:07:56;;;;;;;1.73;0.95;;;;;;;16.94;52.10;99458.38;10358269;28;20077;-80
2023/07/21 02:12:58;;;;;;;2.58;1.20;;;;;;;16.61;53.06;99459.69;10326282;28;20135;-80
2023/07/21 02:18:00;;;;;;;4.03;1.27;;;;;;;16.23;53.84;99464.94;10341790;28;20068;-80
2023/07/21 02:23:02;;;;;;;1.83;1.35;;;;;;;16.11;55.04;99458.16;10358052;28;20582;-80
2023/07/21 02:28:05;;;;;;;2.55;1.30;;;;;;;16.27;55.21;99445.22;10342055;28;20392;-80
2023/07/21 02:33:07;;;;;;;4.15;1.30;;;;;;;16.03;55.36;99437.75;10339207;28;20511;-80
2023/07/21 02:38:09;;;;;;;1.65;1.20;;;;;;;15.82;55.68;99433.53;10339506;28;20064;-80
2023/07/21 02:43:12;;;;;;;2.55;1.23;;;;;;;16.01;56.69;99450.22;10339564;28;20218;-80
2023/07/21 02:48:16;;;;;;;1.77;1.20;;;;;;;15.87;56.61;99448.00;10325519;28;20056;-80
2023/07/21 02:53:20;;;;;;;2.63;1.50;;;;;;;15.89;56.92;99429.41;10357006;28;20049;-80
2023/07/21 02:58:30;;;;;;;1.13;1.02;;;;;;;15.69;57.38;99433.81;10338385;28;20045;-80
2023/07/21 03:03:34;;;;;;;1.55;1.20;;;;;;;15.44;57.75;99429.00;10322363;28;20057;-80
2023/07/21 03:08:43;;;;;;;1.80;1.17;;;;;;;15.51;57.77;99432.78;10351404;28;20048;-79
2023/07/21 03:13:47;;;;;;;1.40;1.25;;;;;;;15.62;58.53;99437.09;10354722;28;20153;-79
2023/07/21 03:18:50;;;;;;;1.67;1.20;;;;;;;15.71;58.20;99423.97;10359516;28;20038;-80
2023/07/21 03:23:55;;;;;;;2.00;1.30;;;;;;;15.43;58.74;99412.34;10342415;28;20049;-80
2023/07/21 03:28:59;;;;;;;2.22;1.30;;;;;;;15.66;59.21;99423.53;10342216;28;20057;-80
2023/07/21 03:34:04;;;;;;;2.08;1.20;;;;;;;15.61;58.97;99415.22;10358723;28;20053;-80
2023/07/21 03:39:07;;;;;;;2.38;1.30;;;;;;;15.69;59.19;99403.97;10327279;28;20073;-80
2023/07/21 03:44:09;;;;;;;2.15;1.38;;;;;;;15.96;58.96;99401.47;10343884;28;20050;-80
2023/07/21 03:49:16;;;;;;;2.45;1.55;;;;;;;16.08;58.39;99397.78;10359950;28;20054;-81
2023/07/21 03:54:25;;;;;;;2.58;1.45;;;;;;;15.68;58.50;99403.13;10342006;28;20141;-80
2023/07/21 03:59:28;;;;;;;1.48;1.20;;;;;;;15.77;58.96;99404.97;10324093;28;20135;-80
2023/07/21 04:04:32;;;;;;;3.65;1.33;;;;;;;15.79;58.29;99402.19;10340466;28;20049;-81
2023/07/21 04:09:34;;;;;;;2.45;1.40;;;;;;;15.69;58.41;99399.53;10356797;28;20056;-80
2023/07/21 04:14:37;;;;;;;1.20;1.10;;;;;;;15.67;58.48;99390.94;10340520;28;20422;-80
2023/07/21 04:19:39;;;;;;;2.92;1.40;;;;;;;15.90;58.28;99384.41;10324762;28;20046;-79
2023/07/21 04:24:42;;;;;;;1.95;1.30;;;;;;;15.74;58.13;99381.50;10339921;28;20050;-80
2023/07/21 04:29:44;;;;;;;1.90;1.30;;;;;;;15.76;58.17;99371.66;10325194;28;20074;-79
2023/07/21 04:34:46;;;;;;;3.80;1.40;;;;;;;15.75;58.43;99375.28;10323272;28;20054;-79
2023/07/21 04:39:49;;;;;;;2.05;1.48;;;;;;;15.58;59.62;99383.84;10357065;28;20038;-79
2023/07/21 04:44:51;;;;;;;2.33;1.30;;;;;;;15.54;60.02;99390.34;10338971;28;20432;-80
2023/07/21 04:49:53;;;;;;;2.15;1.50;;;;;;;15.82;58.92;99381.63;10342675;28;20049;-79
2023/07/21 04:54:56;;;;;;;2.08;1.20;;;;;;;16.06;58.79;99381.25;10355933;28;20125;-81
2023/07/21 04:59:59;;;;;;;2.08;1.20;;;;;;;16.29;59.12;99376.47;10336260;28;20041;-80
2023/07/21 05:05:01;;;;;;;1.83;1.40;;;;;;;16.40;59.13;99378.97;10338208;28;20467;-80
2023/07/21 05:10:05;;;;;;;2.17;1.30;;;;;;;16.47;59.16;99378.28;10338055;28;20417;-79
2023/07/21 05:15:09;;;;;;;2.45;1.45;;;;;;;16.63;58.65;99377.72;10355091;28;20058;-79
2023/07/21 05:20:24;;;;;;;2.30;1.58;;;;;;;16.70;58.31;99390.19;10354272;28;20042;-79
2023/07/21 05:25:36;;;;;;;2.10;1.27;;;;;;;16.67;58.59;99421.34;10354470;28;20572;-80
2023/07/21 05:30:42;;;;;;;2.17;1.40;;;;;;;16.62;58.19;99428.84;10338853;28;20053;-79
2023/07/21 05:43:11;;;;;;;2.78;1.20;;;;;;;16.97;57.60;99418.47;10355257;28;20072;-79
2023/07/21 05:48:13;;;;;;;1.27;1.13;;;;;;;17.05;57.33;99421.22;10322736;28;20388;-79
2023/07/21 05:53:20;;;;;;;1.85;1.45;;;;;;;16.96;57.21;99411.50;10337300;28;20049;-80
2023/07/21 05:58:22;;;;;;;2.33;1.20;;;;;;;17.18;56.74;99415.63;10337486;28;20046;-80
2023/07/21 06:03:25;;;;;;;2.20;1.30;;;;;;;17.06;56.55;99408.84;10351476;28;20050;-79
2023/07/21 06:08:30;;;;;;;1.50;1.10;;;;;;;17.08;56.94;99409.53;10320015;28;20073;-80
2023/07/21 06:13:54;;;;;;;1.65;1.30;;;;;;;17.08;56.55;99418.28;10338786;28;20053;-80
2023/07/21 06:19:12;;;;;;;;;;;;;;;17.01;58.01;99406.63;10352848;28;20503;-79
2023/07/21 06:24:14;;;;;;;1.58;1.30;;;;;;;17.36;56.62;99398.88;10336380;28;19933;-79
2023/07/21 06:29:16;;;;;;;2.50;1.17;;;;;;;17.68;55.68;99409.81;10314873;28;20136;-80
2023/07/21 06:34:19;;;;;;;2.60;1.20;;;;;;;17.82;55.00;99408.44;10348315;28;20079;-80
2023/07/21 06:39:39;;;;;;;1.33;1.13;;;;;;;17.84;54.70;99404.69;10335340;28;20049;-81
2023/07/21 06:44:57;;;;;;;2.08;1.20;;;;;;;18.27;54.13;99405.75;10351262;28;20064;-80
2023/07/21 06:50:26;;;;;;;3.22;1.20;;;;;;;18.67;53.32;99403.41;10348688;28;20050;-82
2023/07/21 06:55:32;;;;;;;2.40;1.20;;;;;;;18.73;52.70;99396.66;10362030;28;20049;-80
2023/07/21 07:00:35;;;;;;;3.53;1.40;;;;;;;19.12;51.79;99393.44;10379601;28;20041;-81
2023/07/21 07:05:41;;;;;;;2.35;1.38;;;;;;;19.24;51.35;99386.00;10360595;28;20165;-80
2023/07/21 07:10:48;;;;;;;1.17;1.05;;;;;;;19.49;50.79;99390.41;10347814;28;20096;-80
2023/07/21 07:15:52;;;;;;;2.70;1.30;;;;;;;19.31;51.22;99408.25;10357664;28;20068;-80
2023/07/21 07:20:56;;;;;;;4.53;1.38;;;;;;;18.99;51.46;99408.88;10345964;28;20502;-80
2023/07/21 07:26:01;;;;;;;1.88;1.17;;;;;;;18.61;51.85;99419.91;10343692;28;20140;-81
2023/07/21 07:31:06;;;;;;;2.22;1.20;;;;;;;18.38;52.58;99416.13;10362424;28;20073;-81
2023/07/21 07:36:09;;;;;;;1.85;1.20;;;;;;;18.47;52.22;99420.47;10362319;28;20058;-81
2023/07/21 07:41:13;;;;;;;3.70;1.90;;;;;;;18.36;52.19;99420.72;10331422;28;20050;-81
2023/07/21 07:46:17;;;;;;;3.10;1.50;;;;;;;18.27;52.32;99416.34;10375947;28;20172;-81
2023/07/21 07:51:22;;;;;;;1.95;1.23;;;;;;;18.24;52.64;99424.59;10348534;28;20050;-81
2023/07/21 07:56:26;;;;;;;1.90;1.45;;;;;;;18.16;52.77;99435.06;10344246;28;20058;-82
2023/07/21 08:01:29;;;;;;;1.70;1.10;;;;;;;18.28;52.78;99431.25;10322452;28;20286;-81
2023/07/21 08:06:33;;;;;;;1.30;1.13;;;;;;;18.45;52.39;99438.34;10353045;28;20525;-81
2023/07/21 08:11:37;;;;;;;1.75;1.23;;;;;;;18.35;52.15;99435.78;10355628;28;20054;-81
2023/07/21 08:16:42;;;;;;;3.30;1.50;;;;;;;18.28;52.79;99437.34;10337977;28;20045;-79
2023/07/21 08:21:54;;;;;;;1.92;1.30;;;;;;;18.35;52.89;99435.78;10340414;28;20050;-79
2023/07/21 08:27:02;;;;;;;1.88;1.30;;;;;;;18.64;52.50;99430.22;10335669;28;20060;-79
2023/07/21 08:32:06;;;;;;;1.73;1.17;;;;;;;19.00;51.92;99436.22;10354085;28;20053;-79
2023/07/21 08:37:11;;;;;;;4.28;1.30;;;;;;;19.53;51.78;99430.72;10346480;28;20570;-80
2023/07/21 08:42:15;;;;;;;4.25;1.77;;;;;;;19.70;51.37;99430.63;10336899;28;20053;-80
2023/07/21 08:47:23;;;;;;;2.08;1.25;;;;;;;20.29;50.92;99426.94;10351343;28;20052;-80
2023/07/21 08:52:25;;;;;;;4.03;1.30;;;;;;;20.20;50.38;99431.41;10336601;28;20053;-79
2023/07/21 08:57:28;;;;;;;2.20;1.33;;;;;;;20.16;50.40;99432.72;10349484;28;20049;-80
2023/07/21 09:02:47;;;;;;;2.28;1.25;;;;;;;20.31;50.55;99424.94;10323037;28;20077;-79
2023/07/21 09:07:51;;;;;;;1.38;1.15;;;;;;;20.21;50.25;99418.97;10335302;28;20108;-79
2023/07/21 09:12:54;;;;;;;2.70;1.40;;;;;;;20.51;50.37;99409.47;10302469;28;20057;-79
2023/07/21 09:17:59;;;;;;;1.65;1.33;;;;;;;20.84;49.36;99417.28;10353564;28;20045;-78
2023/07/21 09:23:07;;;;;;;3.05;1.50;;;;;;;20.31;49.64;99411.66;10333224;28;20053;-80
2023/07/21 09:28:11;;;;;;;1.38;1.25;;;;;;;20.53;50.21;99405.66;10319293;28;20046;-80
2023/07/21 09:33:21;;;;;;;2.58;1.40;;;;;;;20.63;49.81;99413.50;10349057;28;20653;-80
2023/07/21 09:38:27;;;;;;;1.23;1.10;;;;;;;20.67;49.62;99409.50;10334259;28;20052;-80
2023/07/21 09:43:32;;;;;;;2.15;1.50;;;;;;;20.91;48.92;99402.31;10314301;28;20870;-81
2023/07/21 09:48:39;;;;;;;1.67;1.35;;;;;;;21.11;49.07;99401.94;10335842;28;20058;-80
2023/07/21 09:53:45;;;;;;;1.58;1.20;;;;;;;21.43;48.11;99404.50;10335217;28;20403;-80
2023/07/21 09:59:02;;;;;;;1.42;1.10;;;;;;;21.77;47.81;99413.78;10333102;28;20045;-81
2023/07/21 10:04:08;;;;;;;1.67;1.27;;;;;;;22.03;46.10;99412.59;10332623;28;20450;-81
2023/07/21 10:09:16;;;;;;;2.08;1.30;;;;;;;22.20;46.22;99415.03;10318214;28;20527;-81
2023/07/21 10:14:33;;;;;;;3.83;1.55;;;;;;;22.49;45.15;99406.31;10332137;28;20042;-81
2023/07/21 10:19:42;;;;;;;1.95;1.23;;;;;;;22.39;44.61;99413.72;10314180;28;20041;-80
2023/07/21 10:24:51;;;;;;;1.70;1.33;;;;;;;22.53;44.21;99407.59;10347266;28;20400;-80
2023/07/21 10:30:20;;;;;;;1.38;1.20;;;;;;;22.54;43.43;99410.06;10334527;28;20523;-80
2023/07/21 10:35:39;;;;;;;1.40;1.23;;;;;;;22.48;42.86;99400.13;10341419;28;20054;-81
2023/07/21 10:40:45;;;;;;;1.50;1.20;;;;;;;22.82;43.24;99397.00;10310862;28;20173;-81
2023/07/21 10:45:54;;;;;;;2.80;1.27;;;;;;;23.27;42.10;99394.16;10327140;28;20081;-80
2023/07/21 10:51:01;;;;;;;2.65;1.13;;;;;;;23.64;41.27;99397.69;10346306;28;20038;-80
2023/07/21 10:56:07;;;;;;;1.40;1.00;;;;;;;24.13;39.92;99388.00;10324467;28;20052;-81
2023/07/21 11:01:10;;;;;;;2.05;1.15;;;;;;;24.43;39.19;99388.69;10310621;28;20046;-81
2023/07/21 11:06:16;;;;;;;1.85;1.05;;;;;;;24.52;38.26;99387.50;10326363;28;20184;-81
2023/07/21 11:11:22;;;;;;;1.58;1.10;;;;;;;24.39;38.18;99382.88;10327528;28;20137;-81
2023/07/21 11:16:28;;;;;;;1.63;1.00;;;;;;;24.78;38.13;99375.19;10323849;28;20045;-81
2023/07/21 11:21:33;;;;;;;1.63;1.10;;;;;;;24.79;37.32;99360.81;10327440;28;20041;-81
2023/07/21 11:26:39;;;;;;;1.05;0.95;;;;;;;24.87;37.10;99363.31;10313050;28;20054;-81
2023/07/21 11:31:43;;;;;;;1.63;1.00;;;;;;;24.42;36.97;99361.13;10313940;28;20050;-81
2023/07/21 11:36:48;;;;;;;1.88;1.08;;;;;;;23.94;38.20;99365.38;10336773;28;20068;-82
2023/07/21 11:41:54;;;;;;;2.38;1.00;;;;;;;23.71;38.47;99377.25;10324292;28;20048;-81
2023/07/21 11:47:11;;;;;;;1.83;0.95;;;;;;;23.44;38.75;99381.47;10331987;28;20092;-82
2023/07/21 11:52:26;;;;;;;1.60;1.10;;;;;;;23.09;39.72;99382.19;10326375;28;20053;-82
2023/07/21 11:57:34;;;;;;;1.55;1.13;;;;;;;22.88;41.14;99385.59;10352475;28;20050;-83
2023/07/21 12:02:41;;;;;;;1.38;1.00;;;;;;;22.68;42.03;99389.78;10354792;28;20054;-80
2023/07/21 12:07:44;;;;;;;2.35;0.95;;;;;;;22.72;41.79;99385.72;10353834;28;20113;-81
2023/07/21 12:12:47;;;;;;;1.20;0.98;;;;;;;22.55;42.18;99385.09;10336523;28;20057;-81
2023/07/21 12:17:51;;;;;;;1.58;1.10;;;;;;;22.51;42.43;99388.28;10338168;28;20046;-80
2023/07/21 12:22:54;;;;;;;1.60;1.13;;;;;;;22.26;43.30;99395.66;10336772;28;20060;-80
2023/07/21 12:28:04;;;;;;;1.27;1.00;;;;;;;21.71;45.81;99408.34;10341107;28;20052;-81
2023/07/21 12:33:07;;;;;;;;;;;;;;;20.82;50.18;99429.91;10350796;28;20069;-80
2023/07/21 12:38:12;;;;;;;1.73;1.10;;;;;;;19.56;51.42;99464.88;10332398;28;19922;-79
2023/07/21 12:43:16;;;;;;;1.20;0.80;;;;;;;18.23;52.68;99497.88;10335293;28;20054;-81
2023/07/21 12:48:20;;;;;;;1.83;1.08;;;;;;;17.76;53.88;99483.94;10320016;28;20224;-79
2023/07/21 12:53:22;;;;;;;0.52;0.52;;;;;;;17.87;53.48;99480.28;10317872;28;20053;-80
2023/07/21 12:58:25;;;;;;;0.90;0.70;;;;;;;18.35;54.41;99487.88;10336904;28;20077;-79
2023/07/21 13:03:29;;;;;;;0.80;0.80;;;;;;;18.66;54.63;99489.16;10334434;28;20641;-79
2023/07/21 13:08:40;;;;;;;1.58;0.85;;;;;;;19.00;54.75;99492.72;10336913;28;20051;-82
2023/07/21 13:13:46;;;;;;;0.57;0.57;;;;;;;19.34;54.69;99483.00;10335791;28;20133;-81
2023/07/21 13:18:50;;;;;;;0.90;0.60;;;;;;;19.60;54.92;99490.09;10338420;28;20398;-80
2023/07/21 13:23:55;;;;;;;0.82;0.82;;;;;;;19.71;54.65;99487.97;10336365;28;20069;-80
2023/07/21 13:28:59;;;;;;;1.00;0.77;;;;;;;20.07;54.15;99475.38;10351658;28;20100;-81
2023/07/21 13:34:02;;;;;;;0.85;0.80;;;;;;;20.29;53.76;99477.38;10319083;28;20455;-81
2023/07/21 13:39:06;;;;;;;2.22;0.77;;;;;;;20.18;53.90;99483.00;10319643;28;20506;-81
2023/07/21 13:44:09;;;;;;;1.10;0.73;;;;;;;19.98;54.57;99492.25;10316498;28;20140;-82
2023/07/21 13:49:13;;;;;;;2.33;0.85;;;;;;;19.67;54.83;99488.44;10336658;28;20050;-81
2023/07/21 13:54:16;;;;;;;1.02;0.93;;;;;;;19.59;54.98;99488.41;10335483;28;20045;-80
2023/07/21 13:59:20;;;;;;;1.20;0.90;;;;;;;19.46;55.50;99478.25;10349764;28;20577;-80
2023/07/21 14:04:23;;;;;;;1.42;1.17;;;;;;;19.33;55.69;99491.13;10349262;28;20058;-80
2023/07/21 14:09:33;;;;;;;31.13;20.38;;;;;;;19.24;55.84;99492.91;10350716;28;20053;-80
2023/07/21 14:14:36;;;;;;;12.13;9.48;;;;;;;19.24;55.85;99492.06;10318229;28;20045;-79
2023/07/21 14:19:40;;;;;;;3.75;2.30;;;;;;;19.17;56.25;99497.19;10334996;28;20046;-80
2023/07/21 14:24:43;;;;;;;3.08;1.70;;;;;;;19.01;56.85;99475.00;10316752;28;20050;-80
2023/07/21 14:29:50;;;;;;;3.17;1.70;;;;;;;19.07;57.34;99479.72;10335454;28;20077;-80
2023/07/21 14:34:53;;;;;;;2.17;1.40;;;;;;;19.07;56.49;99463.81;10331559;28;20057;-79
2023/07/21 14:39:58;;;;;;;2.20;1.45;;;;;;;19.27;57.09;99467.91;10331529;28;20446;-80
2023/07/21 14:45:02;;;;;;;1.30;1.20;;;;;;;19.96;56.06;99457.06;10332247;28;20054;-81
2023/07/21 14:50:09;;;;;;;1.13;0.93;;;;;;;20.60;54.58;99456.34;10334665;28;20562;-81
2023/07/21 14:55:13;;;;;;;1.27;0.82;;;;;;;20.70;53.05;99447.19;10331600;28;20054;-81
2023/07/21 15:00:22;;;;;;;1.13;1.00;;;;;;;20.70;53.36;99433.09;10348816;28;20511;-81
2023/07/21 15:05:26;;;;;;;0.88;0.63;;;;;;;20.34;52.14;99429.91;10347163;28;20064;-80
2023/07/21 15:10:28;;;;;;;1.33;0.95;;;;;;;20.52;52.68;99417.28;10362270;28;20498;-81
2023/07/21 15:15:32;;;;;;;1.10;0.80;;;;;;;20.53;52.19;99418.13;10340453;28;20164;-81
2023/07/21 15:20:36;;;;;;;0.75;0.75;;;;;;;20.75;51.75;99418.28;10326590;28;20822;-80
2023/07/21 15:25:42;;;;;;;2.70;0.90;;;;;;;20.82;50.51;99421.13;10334385;28;20930;-81
2023/07/21 15:30:48;;;;;;;0.57;0.57;;;;;;;21.11;50.13;99413.38;10338017;28;20049;-80
2023/07/21 15:35:54;;;;;;;1.23;0.80;;;;;;;20.85;50.17;99412.78;10324139;28;20057;-81
2023/07/21 15:41:01;;;;;;;1.40;1.02;;;;;;;20.96;50.06;99405.31;10341031;28;20046;-81
2023/07/21 15:46:07;;;;;;;3.08;2.17;;;;;;;20.94;49.99;99412.63;10324266;28;20057;-81
2023/07/21 15:51:11;;;;;;;1.60;1.23;;;;;;;21.02;50.23;99417.91;10341775;28;20135;-81
2023/07/21 15:56:16;;;;;;;2.17;1.30;;;;;;;21.32;49.17;99403.03;10338351;28;20077;-81
2023/07/21 16:01:19;;;;;;;0.75;0.75;;;;;;;21.34;48.81;99400.19;10340921;28;20097;-81
2023/07/21 16:06:24;;;;;;;1.33;0.80;;;;;;;21.50;47.99;99410.75;10338227;28;20439;-81
2023/07/21 16:11:27;;;;;;;1.38;0.90;;;;;;;21.31;48.30;99404.03;10339384;28;20450;-81
2023/07/21 16:16:31;;;;;;;1.08;1.00;;;;;;;20.96;48.78;99412.44;10323257;28;20057;-81
2023/07/21 16:21:34;;;;;;;0.77;0.75;;;;;;;20.53;49.58;99402.19;10337914;28;20042;-81
2023/07/21 16:26:43;;;;;;;1.20;0.90;;;;;;;20.07;50.09;99412.47;10334555;28;20192;-81
2023/07/21 16:31:48;;;;;;;0.98;0.80;;;;;;;19.69;51.87;99438.72;10322199;28;20073;-81
2023/07/21 16:36:54;;;;;;;1.48;1.10;;;;;;;19.51;53.09;99472.47;10333021;28;20434;-80
2023/07/21 16:41:58;;;;;;;3.03;1.52;;;;;;;18.92;55.61;99527.13;10366792;28;20057;-81
2023/07/21 16:47:03;;;;;;;1.77;1.00;;;;;;;18.36;56.71;99523.97;10335740;28;20058;-80
2023/07/21 16:52:09;;;;;;;1.48;0.88;;;;;;;18.26;56.42;99502.06;10355488;28;20486;-80
2023/07/21 16:57:11;;;;;;;0.88;0.80;;;;;;;18.66;56.24;99507.72;10337265;28;20049;-80
2023/07/21 17:02:16;;;;;;;1.38;1.00;;;;;;;19.18;56.21;99514.75;10337141;28;20046;-81
2023/07/21 17:07:19;;;;;;;4.38;1.60;;;;;;;19.09;57.42;99510.38;10337911;28;20053;-81
2023/07/21 17:12:23;;;;;;;3.17;1.42;;;;;;;19.17;56.97;99517.56;10353814;28;20042;-80
2023/07/21 17:17:25;;;;;;;2.70;1.75;;;;;;;19.07;57.78;99516.81;10337336;28;20173;-81
2023/07/21 17:22:28;;;;;;;2.38;1.55;;;;;;;19.07;57.31;99520.31;10336482;28;20061;-80
2023/07/21 17:27:32;;;;;;;2.78;1.58;;;;;;;18.93;58.05;99522.66;10336250;28;20058;-80
2023/07/21 17:32:34;;;;;;;2.95;1.73;;;;;;;18.90;58.22;99531.75;10319782;28;20402;-80
2023/07/21 17:37:40;;;;;;;3.17;1.83;;;;;;;18.90;58.64;99534.38;10334752;28;20082;-80
2023/07/21 17:42:44;;;;;;;2.85;1.55;;;;;;;18.99;58.64;99533.44;10318467;28;20057;-81
2023/07/21 17:47:49;;;;;;;3.30;1.90;;;;;;;19.02;58.14;99525.22;10366242;28;20153;-81
2023/07/21 17:52:54;;;;;;;3.60;1.80;;;;;;;18.95;58.65;99537.38;10318842;28;20050;-81
2023/07/21 17:57:56;;;;;;;2.50;1.50;;;;;;;18.85;58.50;99547.25;10336843;28;20050;-81
2023/07/21 18:02:59;;;;;;;2.88;1.60;;;;;;;18.71;58.84;99553.09;10334139;28;20057;-81
2023/07/21 18:08:06;;;;;;;5.25;2.63;;;;;;;18.64;58.85;99570.59;10352899;28;20841;-81
2023/07/21 18:13:11;;;;;;;2.53;1.17;;;;;;;18.56;58.81;99560.72;10352646;28;20050;-83
2023/07/21 18:18:15;;;;;;;2.70;1.50;;;;;;;18.43;58.93;99565.59;10354533;28;20052;-83
2023/07/21 18:23:20;;;;;;;2.17;1.30;;;;;;;18.39;59.07;99566.03;10336229;28;21184;-82
2023/07/21 18:28:27;;;;;;;2.50;1.35;;;;;;;18.24;59.06;99573.66;10336149;28;20093;-83
2023/07/21 18:33:30;;;;;;;1.70;1.15;;;;;;;18.13;59.04;99584.41;10319677;28;20058;-83
2023/07/21 18:38:34;;;;;;;2.22;1.50;;;;;;;17.99;59.49;99586.72;10353214;28;20040;-82
2023/07/21 18:43:40;;;;;;;2.35;1.15;;;;;;;17.83;60.15;99593.47;10331593;28;20407;-83
2023/07/21 18:48:45;;;;;;;2.30;1.27;;;;;;;17.78;60.20;99597.53;10336940;28;20054;-82
2023/07/21 18:53:48;;;;;;;2.00;1.10;;;;;;;17.72;60.27;99606.88;10351635;28;20054;-82
2023/07/21 18:59:02;;;;;;;5.63;1.70;;;;;;;17.75;59.87;99608.41;10335292;28;20053;-79
2023/07/21 19:04:06;;;;;;;4.13;1.50;;;;;;;17.51;60.15;99614.19;10349175;28;20515;-79
2023/07/21 19:09:10;;;;;;;1.98;1.27;;;;;;;17.40;60.52;99624.09;10333913;28;20050;-79
2023/07/21 19:14:17;;;;;;;1.80;1.20;;;;;;;17.37;60.54;99619.91;10348386;28;20121;-79
2023/07/21 19:19:21;;;;;;;4.13;1.33;;;;;;;17.43;60.40;99623.78;10335064;28;20529;-78
2023/07/21 19:24:25;;;;;;;1.30;1.10;;;;;;;17.38;60.51;99640.09;10344409;28;20563;-77
2023/07/21 19:29:28;;;;;;;2.70;1.25;;;;;;;17.24;61.16;99652.88;10341213;28;20042;-77
2023/07/21 19:34:30;;;;;;;2.80;1.30;;;;;;;17.27;60.87;99658.72;10332657;28;20065;-77
2023/07/21 19:39:33;;;;;;;1.88;1.13;;;;;;;17.19;61.18;99655.94;10349030;28;20042;-78
2023/07/21 19:44:36;;;;;;;2.00;1.10;;;;;;;17.18;61.50;99664.81;10350636;28;20049;-78
2023/07/21 19:49:39;;;;;;;1.42;1.15;;;;;;;17.10;61.50;99672.63;10349425;28;20064;-77
2023/07/21 19:54:41;;;;;;;8.10;2.13;;;;;;;17.06;61.90;99683.63;10337428;28;21036;-78
2023/07/21 19:59:43;;;;;;;2.50;1.45;;;;;;;17.07;61.62;99678.19;10322640;28;20085;-78
2023/07/21 20:04:45;;;;;;;1.83;1.05;;;;;;;16.98;61.45;99679.84;10336208;28;20590;-78
2023/07/21 20:09:47;;;;;;;1.98;1.25;;;;;;;16.99;61.81;99686.81;10320345;28;20042;-77
2023/07/21 20:14:49;;;;;;;1.92;1.30;;;;;;;16.87;61.70;99695.00;10339286;28;20053;-77
2023/07/21 20:19:51;;;;;;;2.03;1.30;;;;;;;16.74;61.95;99694.41;10354866;28;20038;-77
2023/07/21 20:24:54;;;;;;;1.73;1.15;;;;;;;16.66;61.92;99691.63;10319104;28;20508;-78
2023/07/21 20:29:56;;;;;;;2.65;1.65;;;;;;;16.60;62.24;99697.44;10313978;28;20140;-77
2023/07/21 20:34:58;;;;;;;2.33;1.45;;;;;;;16.39;62.60;99702.78;10337603;28;20058;-77
2023/07/21 20:40:01;;;;;;;2.83;1.30;;;;;;;16.26;62.85;99709.25;10336901;28;20058;-78
2023/07/21 20:45:03;;;;;;;3.83;1.40;;;;;;;16.02;63.89;99725.38;10318817;28;20499;-77
2023/07/21 20:50:06;;;;;;;1.88;1.38;;;;;;;15.91;63.84;99730.75;10337851;28;20060;-78
2023/07/21 20:55:09;;;;;;;2.28;1.30;;;;;;;15.82;63.81;99735.00;10338587;28;20050;-77
2023/07/21 21:00:15;;;;;;;1.95;1.30;;;;;;;15.77;64.27;99726.66;10338972;28;20052;-77
2023/07/21 21:05:18;;;;;;;2.13;1.33;;;;;;;15.67;64.51;99738.94;10335738;28;20053;-77
2023/07/21 21:10:20;;;;;;;3.47;1.75;;;;;;;15.53;64.63;99748.94;10335890;28;20054;-77
2023/07/21 21:15:22;;;;;;;2.92;1.50;;;;;;;15.45;64.62;99748.72;10335277;28;20084;-78
2023/07/21 21:20:25;;;;;;;2.03;1.40;;;;;;;15.32;64.82;99746.25;10334045;28;20037;-77
2023/07/21 21:25:27;;;;;;;6.93;1.65;;;;;;;15.27;65.46;99756.31;10335662;28;20072;-77
2023/07/21 21:30:29;;;;;;;5.25;1.63;;;;;;;15.22;65.14;99767.25;10333762;28;20050;-77
2023/07/21 21:35:31;;;;;;;2.28;1.40;;;;;;;15.22;64.82;99771.69;10334764;28;21845;-78
2023/07/21 21:40:33;;;;;;;2.33;1.50;;;;;;;15.02;65.67;99769.81;10335191;28;20057;-77
2023/07/21 21:45:38;;;;;;;2.08;1.30;;;;;;;15.03;65.67;99767.06;10349924;28;20161;-76
2023/07/21 21:50:41;;;;;;;2.35;1.58;;;;;;;15.03;65.25;99767.06;10367614;28;20053;-77
2023/07/21 21:55:43;;;;;;;2.45;1.50;;;;;;;14.98;64.84;99778.94;10333936;28;20073;-77
2023/07/21 22:00:45;;;;;;;2.50;1.30;;;;;;;14.89;64.69;99783.13;10350877;28;20395;-77
2023/07/21 22:05:47;;;;;;;2.55;1.30;;;;;;;14.85;64.69;99779.06;10367385;28;20061;-77
2023/07/21 22:10:49;;;;;;;2.33;1.50;;;;;;;14.78;64.59;99779.69;10349881;28;20053;-76
2023/07/21 22:15:51;;;;;;;3.13;2.05;;;;;;;14.67;64.68;99782.31;10349587;28;20061;-76
2023/07/21 22:20:53;;;;;;;3.50;1.50;;;;;;;14.52;64.81;99785.19;10333509;28;20069;-77
2023/07/21 22:25:56;;;;;;;3.00;1.52;;;;;;;14.39;64.94;99787.06;10335225;28;20558;-77
2023/07/21 22:30:58;;;;;;;3.35;1.50;;;;;;;14.35;64.84;99797.97;10351148;28;20057;-76
2023/07/21 22:36:00;;;;;;;2.67;1.55;;;;;;;14.27;65.37;99792.44;10347765;28;20080;-76
2023/07/21 22:41:03;;;;;;;2.55;1.50;;;;;;;14.25;65.68;99794.34;10328404;28;20048;-77
2023/07/21 22:46:05;;;;;;;2.25;1.40;;;;;;;14.14;65.90;99800.44;10343853;28;20054;-76
2023/07/21 22:51:08;;;;;;;3.28;1.58;;;;;;;14.03;66.42;99805.66;10314270;28;20120;-76
2023/07/21 22:56:10;;;;;;;2.10;1.27;;;;;;;13.95;66.26;99809.81;10331329;28;20402;-76
2023/07/21 23:01:12;;;;;;;3.25;1.80;;;;;;;13.83;66.44;99810.75;10334756;28;20042;-77
2023/07/21 23:06:14;;;;;;;2.50;1.52;;;;;;;13.77;66.23;99812.91;10336175;28;20065;-77
2023/07/21 23:11:16;;;;;;;3.90;1.63;;;;;;;13.76;66.42;99813.00;10349354;28;20050;-77
2023/07/21 23:16:19;;;;;;;3.53;1.80;;;;;;;13.80;66.39;99819.69;10318004;28;20045;-77
2023/07/21 23:21:21;;;;;;;2.10;1.42;;;;;;;13.72;66.26;99811.53;10333387;28;20042;-77
2023/07/21 23:26:23;;;;;;;3.10;1.95;;;;;;;13.73;66.46;99811.47;10332458;28;20077;-77
2023/07/21 23:31:26;;;;;;;4.43;1.80;;;;;;;13.59;66.04;99816.06;10338336;28;20575;-76
2023/07/21 23:36:28;;;;;;;5.10;1.70;;;;;;;13.44;66.39;99817.16;10355348;28;20105;-76
2023/07/21 23:41:30;;;;;;;3.30;1.80;;;;;;;13.45;66.32;99821.47;10357475;28;20057;-76
2023/07/21 23:46:33;;;;;;;2.92;1.60;;;;;;;13.37;66.32;99821.19;10356765;28;20395;-76